To NAV CANADA Home Page Login to a new session Search on AWWS site Disclaimer Vers la page française équivalente Tips FAQ What's new on the site To the Forecasts and Observations / NOTAM section To "File a Flight Plan" website Publications and other links Update of the User's profile FIC Telephone Numbers My Weather Data Folder Route Weather Data Regional Weather Data Local Weather Data To the Forecasts and Observations / NOTAM section
Request Generated 11/13/2018 at 18:12:50 UTC . Weather information available at that time is displayed.

METAR/TAF

FORT MCMURRAY/AB    (show WxCam)

METAR CYMM 131800Z AUTO 13012G17KT 9SM SCT120 SCT140 BKN160 M04/M06 A2996 RMK SLP173=
METAR CYMM 131700Z AUTO 10011G17KT 9SM BKN100 BKN120 BKN150 M05/M07 A2998 RMK SLP182=
METAR CYMM 131600Z AUTO 11011G17KT 9SM OVC140 M06/M08 A3000 RMK SLP189=

TAF CYMM 131238Z 1313/1401 10008KT P6SM SCT020 BKN120 TEMPO 1313/1316
BKN020
FM131600 12010KT P6SM BKN150
RMK FCST BASED ON AUTO OBS. NXT FCST BY 131900Z=
Your time UTC time
Weather data provided by Environment Canada and NAV CANADA